sensor_id;sensor_type;location;lat;lon;timestamp;P1;durP1;ratioP1;P2;durP2;ratioP2
6269;SDS011;3168;51.684;6.954;2023-07-02T00:01:14;3.67;;;3.53;;
6269;SDS011;3168;51.684;6.954;2023-07-02T00:03:39;6.97;;;3.00;;
6269;SDS011;3168;51.684;6.954;2023-07-02T00:06:05;3.20;;;3.10;;
6269;SDS011;3168;51.684;6.954;2023-07-02T00:08:31;3.47;;;3.37;;
6269;SDS011;3168;51.684;6.954;2023-07-02T00:10:58;3.20;;;3.10;;
6269;SDS011;3168;51.684;6.954;2023-07-02T00:13:23;3.20;;;3.10;;
6269;SDS011;3168;51.684;6.954;2023-07-02T00:15:49;3.47;;;3.37;;
6269;SDS011;3168;51.684;6.954;2023-07-02T00:18:16;3.20;;;3.03;;
6269;SDS011;3168;51.684;6.954;2023-07-02T00:20:42;3.47;;;2.73;;
6269;SDS011;3168;51.684;6.954;2023-07-02T00:23:08;3.40;;;3.30;;
6269;SDS011;3168;51.684;6.954;2023-07-02T00:25:34;3.17;;;3.07;;
6269;SDS011;3168;51.684;6.954;2023-07-02T00:28:00;2.63;;;2.50;;
6269;SDS011;3168;51.684;6.954;2023-07-02T00:30:26;3.77;;;3.47;;
6269;SDS011;3168;51.684;6.954;2023-07-02T00:32:52;3.10;;;2.90;;
6269;SDS011;3168;51.684;6.954;2023-07-02T00:35:17;2.53;;;2.43;;
6269;SDS011;3168;51.684;6.954;2023-07-02T00:37:43;3.47;;;3.37;;
6269;SDS011;3168;51.684;6.954;2023-07-02T00:40:09;3.30;;;3.20;;
6269;SDS011;3168;51.684;6.954;2023-07-02T00:42:35;3.60;;;3.40;;
6269;SDS011;3168;51.684;6.954;2023-07-02T00:45:01;2.73;;;2.63;;
6269;SDS011;3168;51.684;6.954;2023-07-02T00:47:27;3.43;;;3.13;;
6269;SDS011;3168;51.684;6.954;2023-07-02T00:49:53;3.03;;;2.83;;
6269;SDS011;3168;51.684;6.954;2023-07-02T00:52:19;3.20;;;3.10;;
6269;SDS011;3168;51.684;6.954;2023-07-02T00:54:45;2.90;;;2.80;;
6269;SDS011;3168;51.684;6.954;2023-07-02T00:57:11;4.80;;;3.00;;
6269;SDS011;3168;51.684;6.954;2023-07-02T00:59:36;8.97;;;4.10;;
6269;SDS011;3168;51.684;6.954;2023-07-02T01:02:02;3.40;;;2.50;;
6269;SDS011;3168;51.684;6.954;2023-07-02T01:04:28;6.03;;;3.93;;
6269;SDS011;3168;51.684;6.954;2023-07-02T01:06:54;4.37;;;3.40;;
6269;SDS011;3168;51.684;6.954;2023-07-02T01:09:21;4.33;;;3.53;;
6269;SDS011;3168;51.684;6.954;2023-07-02T01:11:48;5.80;;;3.13;;
6269;SDS011;3168;51.684;6.954;2023-07-02T01:14:14;4.90;;;3.97;;
6269;SDS011;3168;51.684;6.954;2023-07-02T01:16:54;3.80;;;3.17;;
6269;SDS011;3168;51.684;6.954;2023-07-02T01:19:51;7.70;;;3.93;;
6269;SDS011;3168;51.684;6.954;2023-07-02T01:22:19;2.90;;;2.70;;
6269;SDS011;3168;51.684;6.954;2023-07-02T01:24:44;7.20;;;4.40;;
6269;SDS011;3168;51.684;6.954;2023-07-02T01:27:10;5.47;;;3.17;;
6269;SDS011;3168;51.684;6.954;2023-07-02T01:29:36;3.70;;;3.40;;
6269;SDS011;3168;51.684;6.954;2023-07-02T01:32:02;5.00;;;2.93;;
6269;SDS011;3168;51.684;6.954;2023-07-02T01:34:28;11.90;;;4.50;;
6269;SDS011;3168;51.684;6.954;2023-07-02T01:36:54;6.43;;;3.10;;
6269;SDS011;3168;51.684;6.954;2023-07-02T01:39:20;8.03;;;4.00;;
6269;SDS011;3168;51.684;6.954;2023-07-02T01:41:50;3.67;;;3.47;;
6269;SDS011;3168;51.684;6.954;2023-07-02T01:44:14;4.17;;;2.93;;
6269;SDS011;3168;51.684;6.954;2023-07-02T01:46:40;7.37;;;3.77;;
6269;SDS011;3168;51.684;6.954;2023-07-02T01:49:06;7.03;;;4.13;;
6269;SDS011;3168;51.684;6.954;2023-07-02T01:51:32;2.93;;;2.83;;
6269;SDS011;3168;51.684;6.954;2023-07-02T01:53:58;6.97;;;3.70;;
6269;SDS011;3168;51.684;6.954;2023-07-02T01:56:24;3.67;;;3.30;;
6269;SDS011;3168;51.684;6.954;2023-07-02T01:58:49;2.70;;;2.50;;
6269;SDS011;3168;51.684;6.954;2023-07-02T02:01:15;12.90;;;3.93;;
6269;SDS011;3168;51.684;6.954;2023-07-02T02:03:41;3.13;;;2.93;;
6269;SDS011;3168;51.684;6.954;2023-07-02T02:06:07;3.80;;;3.30;;
6269;SDS011;3168;51.684;6.954;2023-07-02T02:08:33;3.73;;;3.40;;
6269;SDS011;3168;51.684;6.954;2023-07-02T02:10:59;5.00;;;3.00;;
6269;SDS011;3168;51.684;6.954;2023-07-02T02:13:25;6.77;;;4.93;;
6269;SDS011;3168;51.684;6.954;2023-07-02T02:15:51;7.63;;;3.60;;
6269;SDS011;3168;51.684;6.954;2023-07-02T02:18:16;3.97;;;3.70;;
6269;SDS011;3168;51.684;6.954;2023-07-02T02:20:42;7.43;;;4.73;;
6269;SDS011;3168;51.684;6.954;2023-07-02T02:23:09;4.63;;;4.27;;
6269;SDS011;3168;51.684;6.954;2023-07-02T02:25:34;4.30;;;3.57;;
6269;SDS011;3168;51.684;6.954;2023-07-02T02:28:00;5.10;;;4.40;;
6269;SDS011;3168;51.684;6.954;2023-07-02T02:30:27;5.40;;;3.90;;
6269;SDS011;3168;51.684;6.954;2023-07-02T02:32:53;11.87;;;4.20;;
6269;SDS011;3168;51.684;6.954;2023-07-02T02:35:18;5.47;;;4.10;;
6269;SDS011;3168;51.684;6.954;2023-07-02T02:37:44;13.27;;;5.03;;
6269;SDS011;3168;51.684;6.954;2023-07-02T02:40:10;8.80;;;4.93;;
6269;SDS011;3168;51.684;6.954;2023-07-02T02:42:38;7.53;;;4.27;;
6269;SDS011;3168;51.684;6.954;2023-07-02T02:45:03;4.50;;;4.00;;
6269;SDS011;3168;51.684;6.954;2023-07-02T02:47:29;6.70;;;3.50;;
6269;SDS011;3168;51.684;6.954;2023-07-02T02:49:55;6.70;;;4.40;;
6269;SDS011;3168;51.684;6.954;2023-07-02T02:52:21;10.37;;;5.77;;
6269;SDS011;3168;51.684;6.954;2023-07-02T02:54:46;24.33;;;5.67;;
6269;SDS011;3168;51.684;6.954;2023-07-02T02:57:12;4.90;;;4.43;;
6269;SDS011;3168;51.684;6.954;2023-07-02T02:59:38;11.73;;;5.13;;
6269;SDS011;3168;51.684;6.954;2023-07-02T03:02:04;12.90;;;4.50;;
6269;SDS011;3168;51.684;6.954;2023-07-02T03:04:30;6.83;;;5.43;;
6269;SDS011;3168;51.684;6.954;2023-07-02T03:06:56;9.13;;;5.23;;
6269;SDS011;3168;51.684;6.954;2023-07-02T03:09:22;11.27;;;4.47;;
6269;SDS011;3168;51.684;6.954;2023-07-02T03:11:48;5.40;;;4.90;;
6269;SDS011;3168;51.684;6.954;2023-07-02T03:14:14;8.73;;;4.30;;
6269;SDS011;3168;51.684;6.954;2023-07-02T03:16:41;3.57;;;3.23;;
6269;SDS011;3168;51.684;6.954;2023-07-02T03:19:06;13.10;;;4.33;;
6269;SDS011;3168;51.684;6.954;2023-07-02T03:21:32;4.10;;;3.70;;
6269;SDS011;3168;51.684;6.954;2023-07-02T03:23:58;5.47;;;4.73;;
6269;SDS011;3168;51.684;6.954;2023-07-02T03:26:24;4.90;;;4.00;;
6269;SDS011;3168;51.684;6.954;2023-07-02T03:28:50;4.40;;;4.10;;
6269;SDS011;3168;51.684;6.954;2023-07-02T03:31:15;3.33;;;3.23;;
6269;SDS011;3168;51.684;6.954;2023-07-02T03:33:42;16.23;;;3.37;;
6269;SDS011;3168;51.684;6.954;2023-07-02T03:36:07;10.90;;;4.17;;
6269;SDS011;3168;51.684;6.954;2023-07-02T03:38:33;4.00;;;3.70;;
6269;SDS011;3168;51.684;6.954;2023-07-02T03:40:59;6.00;;;4.37;;
6269;SDS011;3168;51.684;6.954;2023-07-02T03:43:25;3.47;;;3.20;;
6269;SDS011;3168;51.684;6.954;2023-07-02T03:45:51;4.97;;;3.63;;
6269;SDS011;3168;51.684;6.954;2023-07-02T03:48:17;12.23;;;3.93;;
6269;SDS011;3168;51.684;6.954;2023-07-02T03:50:43;12.73;;;4.50;;
6269;SDS011;3168;51.684;6.954;2023-07-02T03:53:09;4.33;;;3.53;;
6269;SDS011;3168;51.684;6.954;2023-07-02T03:55:35;7.40;;;3.75;;
6269;SDS011;3168;51.684;6.954;2023-07-02T03:58:01;3.60;;;3.40;;
6269;SDS011;3168;51.684;6.954;2023-07-02T04:00:26;5.00;;;3.20;;
6269;SDS011;3168;51.684;6.954;2023-07-02T04:02:52;8.30;;;3.53;;
6269;SDS011;3168;51.684;6.954;2023-07-02T04:05:18;10.97;;;3.30;;
6269;SDS011;3168;51.684;6.954;2023-07-02T04:07:44;6.27;;;4.03;;
6269;SDS011;3168;51.684;6.954;2023-07-02T04:10:10;7.13;;;3.70;;
6269;SDS011;3168;51.684;6.954;2023-07-02T04:12:35;10.53;;;5.50;;
6269;SDS011;3168;51.684;6.954;2023-07-02T04:15:01;7.60;;;4.40;;
6269;SDS011;3168;51.684;6.954;2023-07-02T04:17:27;8.70;;;3.60;;
6269;SDS011;3168;51.684;6.954;2023-07-02T04:19:53;7.43;;;3.63;;
6269;SDS011;3168;51.684;6.954;2023-07-02T04:22:19;4.23;;;3.47;;
6269;SDS011;3168;51.684;6.954;2023-07-02T04:24:45;9.90;;;4.60;;
6269;SDS011;3168;51.684;6.954;2023-07-02T04:27:10;16.07;;;4.17;;
6269;SDS011;3168;51.684;6.954;2023-07-02T04:29:36;3.97;;;3.60;;
6269;SDS011;3168;51.684;6.954;2023-07-02T04:32:02;5.10;;;4.50;;
6269;SDS011;3168;51.684;6.954;2023-07-02T04:34:28;7.13;;;3.97;;
6269;SDS011;3168;51.684;6.954;2023-07-02T04:36:54;8.33;;;3.20;;
6269;SDS011;3168;51.684;6.954;2023-07-02T04:39:20;7.53;;;4.33;;
6269;SDS011;3168;51.684;6.954;2023-07-02T04:41:46;4.53;;;3.33;;
6269;SDS011;3168;51.684;6.954;2023-07-02T04:44:12;3.97;;;3.50;;
6269;SDS011;3168;51.684;6.954;2023-07-02T04:46:38;7.57;;;4.40;;
6269;SDS011;3168;51.684;6.954;2023-07-02T04:49:03;9.17;;;3.60;;
6269;SDS011;3168;51.684;6.954;2023-07-02T04:51:29;5.70;;;3.80;;
6269;SDS011;3168;51.684;6.954;2023-07-02T04:53:55;5.83;;;3.70;;
6269;SDS011;3168;51.684;6.954;2023-07-02T04:56:21;4.87;;;4.20;;
6269;SDS011;3168;51.684;6.954;2023-07-02T04:58:46;4.07;;;3.30;;
6269;SDS011;3168;51.684;6.954;2023-07-02T05:01:12;5.17;;;4.20;;
6269;SDS011;3168;51.684;6.954;2023-07-02T05:03:38;6.47;;;4.03;;
6269;SDS011;3168;51.684;6.954;2023-07-02T05:06:05;6.50;;;4.23;;
6269;SDS011;3168;51.684;6.954;2023-07-02T05:08:30;4.40;;;4.10;;
6269;SDS011;3168;51.684;6.954;2023-07-02T05:10:57;6.93;;;4.80;;
6269;SDS011;3168;51.684;6.954;2023-07-02T05:13:23;4.83;;;3.90;;
6269;SDS011;3168;51.684;6.954;2023-07-02T05:15:49;5.93;;;5.20;;
6269;SDS011;3168;51.684;6.954;2023-07-02T05:18:14;8.50;;;5.03;;
6269;SDS011;3168;51.684;6.954;2023-07-02T05:20:40;52.10;;;7.00;;
6269;SDS011;3168;51.684;6.954;2023-07-02T05:23:06;13.67;;;6.13;;
6269;SDS011;3168;51.684;6.954;2023-07-02T05:25:32;8.40;;;5.63;;
6269;SDS011;3168;51.684;6.954;2023-07-02T05:27:58;6.60;;;5.87;;
6269;SDS011;3168;51.684;6.954;2023-07-02T05:30:24;13.80;;;7.20;;
6269;SDS011;3168;51.684;6.954;2023-07-02T05:32:49;14.70;;;6.77;;
6269;SDS011;3168;51.684;6.954;2023-07-02T05:35:15;9.53;;;7.13;;
6269;SDS011;3168;51.684;6.954;2023-07-02T05:37:41;9.83;;;7.00;;
6269;SDS011;3168;51.684;6.954;2023-07-02T05:40:07;13.63;;;7.63;;
6269;SDS011;3168;51.684;6.954;2023-07-02T05:42:34;18.63;;;8.77;;
6269;SDS011;3168;51.684;6.954;2023-07-02T05:44:59;13.40;;;7.40;;
6269;SDS011;3168;51.684;6.954;2023-07-02T05:47:25;9.13;;;5.87;;
6269;SDS011;3168;51.684;6.954;2023-07-02T05:49:51;12.90;;;6.57;;
6269;SDS011;3168;51.684;6.954;2023-07-02T05:52:16;13.17;;;6.80;;
6269;SDS011;3168;51.684;6.954;2023-07-02T05:54:42;17.93;;;7.70;;
6269;SDS011;3168;51.684;6.954;2023-07-02T05:57:08;7.63;;;5.17;;
6269;SDS011;3168;51.684;6.954;2023-07-02T05:59:34;9.73;;;6.97;;
6269;SDS011;3168;51.684;6.954;2023-07-02T06:02:00;9.53;;;5.13;;
6269;SDS011;3168;51.684;6.954;2023-07-02T06:04:26;10.93;;;7.20;;
6269;SDS011;3168;51.684;6.954;2023-07-02T06:06:52;5.50;;;5.10;;
6269;SDS011;3168;51.684;6.954;2023-07-02T06:09:18;12.70;;;5.70;;
6269;SDS011;3168;51.684;6.954;2023-07-02T06:11:44;10.00;;;6.50;;
6269;SDS011;3168;51.684;6.954;2023-07-02T06:14:10;9.20;;;5.20;;
6269;SDS011;3168;51.684;6.954;2023-07-02T06:16:36;10.93;;;6.30;;
6269;SDS011;3168;51.684;6.954;2023-07-02T06:19:02;14.60;;;6.07;;
6269;SDS011;3168;51.684;6.954;2023-07-02T06:21:28;12.87;;;5.90;;
6269;SDS011;3168;51.684;6.954;2023-07-02T06:23:54;5.93;;;4.33;;
6269;SDS011;3168;51.684;6.954;2023-07-02T06:26:20;11.10;;;4.93;;
6269;SDS011;3168;51.684;6.954;2023-07-02T06:28:45;6.80;;;3.93;;
6269;SDS011;3168;51.684;6.954;2023-07-02T06:31:11;4.67;;;4.23;;
6269;SDS011;3168;51.684;6.954;2023-07-02T06:33:38;11.53;;;5.67;;
6269;SDS011;3168;51.684;6.954;2023-07-02T06:36:04;13.03;;;5.47;;
6269;SDS011;3168;51.684;6.954;2023-07-02T06:38:30;5.30;;;4.90;;
6269;SDS011;3168;51.684;6.954;2023-07-02T06:40:56;8.20;;;5.20;;
6269;SDS011;3168;51.684;6.954;2023-07-02T06:43:22;4.77;;;4.17;;
6269;SDS011;3168;51.684;6.954;2023-07-02T06:45:48;7.57;;;5.20;;
6269;SDS011;3168;51.684;6.954;2023-07-02T06:48:13;20.07;;;4.60;;
6269;SDS011;3168;51.684;6.954;2023-07-02T06:50:42;16.00;;;6.13;;
6269;SDS011;3168;51.684;6.954;2023-07-02T06:53:06;5.17;;;4.40;;
6269;SDS011;3168;51.684;6.954;2023-07-02T06:55:32;20.53;;;5.17;;
6269;SDS011;3168;51.684;6.954;2023-07-02T06:57:58;9.10;;;4.23;;
6269;SDS011;3168;51.684;6.954;2023-07-02T07:00:24;21.07;;;5.13;;
6269;SDS011;3168;51.684;6.954;2023-07-02T07:02:49;7.20;;;4.90;;
6269;SDS011;3168;51.684;6.954;2023-07-02T07:05:16;8.33;;;4.50;;
6269;SDS011;3168;51.684;6.954;2023-07-02T07:07:42;10.13;;;5.00;;
6269;SDS011;3168;51.684;6.954;2023-07-02T07:10:08;9.40;;;5.17;;
6269;SDS011;3168;51.684;6.954;2023-07-02T07:12:34;14.50;;;4.13;;
6269;SDS011;3168;51.684;6.954;2023-07-02T07:15:00;7.47;;;4.90;;
6269;SDS011;3168;51.684;6.954;2023-07-02T07:17:26;12.03;;;5.30;;
6269;SDS011;3168;51.684;6.954;2023-07-02T07:19:52;12.20;;;5.20;;
6269;SDS011;3168;51.684;6.954;2023-07-02T07:22:17;5.23;;;3.77;;
6269;SDS011;3168;51.684;6.954;2023-07-02T07:24:43;5.40;;;4.43;;
6269;SDS011;3168;51.684;6.954;2023-07-02T07:27:09;5.40;;;3.67;;
6269;SDS011;3168;51.684;6.954;2023-07-02T07:29:35;8.63;;;4.50;;
6269;SDS011;3168;51.684;6.954;2023-07-02T07:32:01;20.97;;;4.20;;
6269;SDS011;3168;51.684;6.954;2023-07-02T07:34:27;11.50;;;5.13;;
6269;SDS011;3168;51.684;6.954;2023-07-02T07:36:52;12.83;;;5.60;;
6269;SDS011;3168;51.684;6.954;2023-07-02T07:39:18;5.17;;;4.20;;
6269;SDS011;3168;51.684;6.954;2023-07-02T07:41:46;14.27;;;5.47;;
6269;SDS011;3168;51.684;6.954;2023-07-02T07:44:12;17.07;;;5.70;;
6269;SDS011;3168;51.684;6.954;2023-07-02T07:46:37;4.10;;;3.70;;
6269;SDS011;3168;51.684;6.954;2023-07-02T07:49:03;14.13;;;5.47;;
6269;SDS011;3168;51.684;6.954;2023-07-02T07:51:29;8.33;;;5.00;;
6269;SDS011;3168;51.684;6.954;2023-07-02T07:53:55;12.73;;;5.07;;
6269;SDS011;3168;51.684;6.954;2023-07-02T07:56:21;11.23;;;5.40;;
6269;SDS011;3168;51.684;6.954;2023-07-02T07:58:47;5.10;;;4.70;;
6269;SDS011;3168;51.684;6.954;2023-07-02T08:01:12;5.30;;;4.80;;
6269;SDS011;3168;51.684;6.954;2023-07-02T08:03:38;9.50;;;4.73;;
6269;SDS011;3168;51.684;6.954;2023-07-02T08:06:04;7.53;;;6.17;;
6269;SDS011;3168;51.684;6.954;2023-07-02T08:08:30;8.63;;;4.17;;
6269;SDS011;3168;51.684;6.954;2023-07-02T08:10:56;5.97;;;4.50;;
6269;SDS011;3168;51.684;6.954;2023-07-02T08:13:22;11.20;;;5.50;;
6269;SDS011;3168;51.684;6.954;2023-07-02T08:15:47;12.00;;;5.27;;
6269;SDS011;3168;51.684;6.954;2023-07-02T08:18:14;5.50;;;4.87;;
6269;SDS011;3168;51.684;6.954;2023-07-02T08:20:39;5.67;;;4.10;;
6269;SDS011;3168;51.684;6.954;2023-07-02T08:23:05;12.13;;;4.00;;
6269;SDS011;3168;51.684;6.954;2023-07-02T08:25:31;10.17;;;5.10;;
6269;SDS011;3168;51.684;6.954;2023-07-02T08:27:57;6.50;;;3.60;;
6269;SDS011;3168;51.684;6.954;2023-07-02T08:30:22;16.70;;;5.20;;
6269;SDS011;3168;51.684;6.954;2023-07-02T08:32:48;15.03;;;4.93;;
6269;SDS011;3168;51.684;6.954;2023-07-02T08:35:14;8.10;;;4.50;;
6269;SDS011;3168;51.684;6.954;2023-07-02T08:37:40;7.10;;;4.57;;
6269;SDS011;3168;51.684;6.954;2023-07-02T08:40:09;4.10;;;3.07;;
6269;SDS011;3168;51.684;6.954;2023-07-02T08:42:33;8.43;;;3.43;;
6269;SDS011;3168;51.684;6.954;2023-07-02T08:44:59;6.87;;;3.43;;
6269;SDS011;3168;51.684;6.954;2023-07-02T08:47:25;7.60;;;5.17;;
6269;SDS011;3168;51.684;6.954;2023-07-02T08:49:51;6.73;;;3.70;;
6269;SDS011;3168;51.684;6.954;2023-07-02T08:52:17;9.37;;;3.77;;
6269;SDS011;3168;51.684;6.954;2023-07-02T08:54:43;2.70;;;2.53;;
6269;SDS011;3168;51.684;6.954;2023-07-02T08:57:09;3.50;;;3.20;;
6269;SDS011;3168;51.684;6.954;2023-07-02T08:59:36;14.47;;;3.90;;
6269;SDS011;3168;51.684;6.954;2023-07-02T09:02:08;4.33;;;3.20;;
6269;SDS011;3168;51.684;6.954;2023-07-02T09:04:39;5.80;;;3.63;;
6269;SDS011;3168;51.684;6.954;2023-07-02T09:07:06;4.63;;;3.30;;
6269;SDS011;3168;51.684;6.954;2023-07-02T09:09:32;6.87;;;2.53;;
6269;SDS011;3168;51.684;6.954;2023-07-02T09:11:58;13.20;;;3.43;;
6269;SDS011;3168;51.684;6.954;2023-07-02T09:14:26;5.73;;;4.30;;
6269;SDS011;3168;51.684;6.954;2023-07-02T09:17:00;3.73;;;3.40;;
6269;SDS011;3168;51.684;6.954;2023-07-02T09:19:16;3.10;;;2.77;;
6269;SDS011;3168;51.684;6.954;2023-07-02T09:21:44;3.30;;;2.70;;
6269;SDS011;3168;51.684;6.954;2023-07-02T09:24:18;3.37;;;2.93;;
6269;SDS011;3168;51.684;6.954;2023-07-02T09:26:46;4.43;;;3.00;;
6269;SDS011;3168;51.684;6.954;2023-07-02T09:29:12;5.90;;;4.00;;
6269;SDS011;3168;51.684;6.954;2023-07-02T09:31:43;3.10;;;2.80;;
6269;SDS011;3168;51.684;6.954;2023-07-02T09:34:09;3.17;;;2.83;;
6269;SDS011;3168;51.684;6.954;2023-07-02T09:36:35;3.67;;;3.03;;
6269;SDS011;3168;51.684;6.954;2023-07-02T09:39:01;3.47;;;3.17;;
6269;SDS011;3168;51.684;6.954;2023-07-02T09:41:27;9.20;;;3.07;;
6269;SDS011;3168;51.684;6.954;2023-07-02T09:43:53;3.30;;;3.10;;
6269;SDS011;3168;51.684;6.954;2023-07-02T09:46:22;4.03;;;3.63;;
6269;SDS011;3168;51.684;6.954;2023-07-02T09:48:49;8.93;;;3.57;;
6269;SDS011;3168;51.684;6.954;2023-07-02T09:51:15;18.90;;;4.23;;
6269;SDS011;3168;51.684;6.954;2023-07-02T09:53:40;5.90;;;2.83;;
6269;SDS011;3168;51.684;6.954;2023-07-02T09:56:07;3.50;;;3.30;;
6269;SDS011;3168;51.684;6.954;2023-07-02T09:58:32;7.03;;;3.20;;
6269;SDS011;3168;51.684;6.954;2023-07-02T10:00:58;7.40;;;3.37;;
6269;SDS011;3168;51.684;6.954;2023-07-02T10:06:02;17.47;;;3.83;;
6269;SDS011;3168;51.684;6.954;2023-07-02T10:08:28;3.93;;;3.40;;
6269;SDS011;3168;51.684;6.954;2023-07-02T10:10:54;7.33;;;3.87;;
6269;SDS011;3168;51.684;6.954;2023-07-02T10:13:26;3.43;;;3.03;;
6269;SDS011;3168;51.684;6.954;2023-07-02T10:16:00;3.57;;;3.13;;
6269;SDS011;3168;51.684;6.954;2023-07-02T10:18:17;3.87;;;3.27;;
6269;SDS011;3168;51.684;6.954;2023-07-02T10:20:43;3.47;;;3.23;;
6269;SDS011;3168;51.684;6.954;2023-07-02T10:23:09;7.63;;;3.57;;
6269;SDS011;3168;51.684;6.954;2023-07-02T10:25:35;10.93;;;2.97;;
6269;SDS011;3168;51.684;6.954;2023-07-02T10:28:01;4.97;;;2.97;;
6269;SDS011;3168;51.684;6.954;2023-07-02T10:30:31;3.83;;;3.43;;
6269;SDS011;3168;51.684;6.954;2023-07-02T10:33:06;3.30;;;2.83;;
6269;SDS011;3168;51.684;6.954;2023-07-02T10:35:39;14.67;;;3.20;;
6269;SDS011;3168;51.684;6.954;2023-07-02T10:38:05;5.80;;;2.80;;
6269;SDS011;3168;51.684;6.954;2023-07-02T10:40:30;3.23;;;2.93;;
6269;SDS011;3168;51.684;6.954;2023-07-02T10:42:56;3.30;;;3.03;;
6269;SDS011;3168;51.684;6.954;2023-07-02T10:45:30;2.70;;;2.47;;
6269;SDS011;3168;51.684;6.954;2023-07-02T10:47:48;2.97;;;2.70;;
6269;SDS011;3168;51.684;6.954;2023-07-02T10:50:15;3.23;;;2.93;;
6269;SDS011;3168;51.684;6.954;2023-07-02T10:52:43;6.10;;;2.73;;
6269;SDS011;3168;51.684;6.954;2023-07-02T10:55:09;19.40;;;3.90;;
6269;SDS011;3168;51.684;6.954;2023-07-02T10:57:35;13.33;;;2.77;;
6269;SDS011;3168;51.684;6.954;2023-07-02T11:00:04;4.17;;;3.87;;
6269;SDS011;3168;51.684;6.954;2023-07-02T11:02:36;3.63;;;2.23;;
6269;SDS011;3168;51.684;6.954;2023-07-02T11:05:02;7.13;;;3.00;;
6269;SDS011;3168;51.684;6.954;2023-07-02T11:07:28;10.03;;;2.80;;
6269;SDS011;3168;51.684;6.954;2023-07-02T11:09:54;2.60;;;2.47;;
6269;SDS011;3168;51.684;6.954;2023-07-02T11:12:27;10.43;;;3.50;;
6269;SDS011;3168;51.684;6.954;2023-07-02T11:14:45;2.53;;;2.30;;
6269;SDS011;3168;51.684;6.954;2023-07-02T11:17:11;2.93;;;2.63;;
6269;SDS011;3168;51.684;6.954;2023-07-02T11:19:37;4.47;;;2.80;;
6269;SDS011;3168;51.684;6.954;2023-07-02T11:22:03;10.77;;;3.97;;
6269;SDS011;3168;51.684;6.954;2023-07-02T11:24:30;7.30;;;3.40;;
6269;SDS011;3168;51.684;6.954;2023-07-02T11:26:55;2.40;;;2.23;;
6269;SDS011;3168;51.684;6.954;2023-07-02T11:29:22;15.93;;;3.13;;
6269;SDS011;3168;51.684;6.954;2023-07-02T11:31:47;5.33;;;2.33;;
6269;SDS011;3168;51.684;6.954;2023-07-02T11:34:17;4.13;;;3.03;;
6269;SDS011;3168;51.684;6.954;2023-07-02T11:36:42;3.10;;;3.00;;
6269;SDS011;3168;51.684;6.954;2023-07-02T11:39:08;7.03;;;3.00;;
6269;SDS011;3168;51.684;6.954;2023-07-02T11:41:37;3.63;;;2.57;;
6269;SDS011;3168;51.684;6.954;2023-07-02T11:44:02;5.90;;;3.20;;
6269;SDS011;3168;51.684;6.954;2023-07-02T11:46:28;2.17;;;2.07;;
6269;SDS011;3168;51.684;6.954;2023-07-02T11:48:54;2.53;;;2.33;;
6269;SDS011;3168;51.684;6.954;2023-07-02T11:51:19;3.33;;;3.13;;
6269;SDS011;3168;51.684;6.954;2023-07-02T11:53:45;8.90;;;3.77;;
6269;SDS011;3168;51.684;6.954;2023-07-02T11:56:11;6.27;;;3.07;;
6269;SDS011;3168;51.684;6.954;2023-07-02T11:58:37;3.92;;;2.80;;
6269;SDS011;3168;51.684;6.954;2023-07-02T12:01:04;6.60;;;3.27;;
6269;SDS011;3168;51.684;6.954;2023-07-02T12:03:29;3.53;;;3.20;;
6269;SDS011;3168;51.684;6.954;2023-07-02T12:05:55;16.00;;;3.67;;
6269;SDS011;3168;51.684;6.954;2023-07-02T12:08:21;5.50;;;3.67;;
6269;SDS011;3168;51.684;6.954;2023-07-02T12:10:48;3.73;;;2.33;;
6269;SDS011;3168;51.684;6.954;2023-07-02T12:13:14;4.13;;;3.83;;
6269;SDS011;3168;51.684;6.954;2023-07-02T12:15:40;2.50;;;2.10;;
6269;SDS011;3168;51.684;6.954;2023-07-02T12:18:06;4.67;;;3.37;;
6269;SDS011;3168;51.684;6.954;2023-07-02T12:20:32;7.33;;;3.23;;
6269;SDS011;3168;51.684;6.954;2023-07-02T12:22:58;3.13;;;2.73;;
6269;SDS011;3168;51.684;6.954;2023-07-02T12:25:25;5.13;;;3.07;;
6269;SDS011;3168;51.684;6.954;2023-07-02T12:27:50;3.67;;;3.37;;
6269;SDS011;3168;51.684;6.954;2023-07-02T12:30:16;5.10;;;4.53;;
6269;SDS011;3168;51.684;6.954;2023-07-02T12:32:42;3.23;;;3.03;;
6269;SDS011;3168;51.684;6.954;2023-07-02T12:35:08;4.10;;;3.70;;
6269;SDS011;3168;51.684;6.954;2023-07-02T12:37:34;8.50;;;3.20;;
6269;SDS011;3168;51.684;6.954;2023-07-02T12:40:00;7.00;;;3.47;;
6269;SDS011;3168;51.684;6.954;2023-07-02T12:42:26;5.60;;;3.60;;
6269;SDS011;3168;51.684;6.954;2023-07-02T12:44:52;4.27;;;3.60;;
6269;SDS011;3168;51.684;6.954;2023-07-02T12:47:18;4.90;;;3.50;;
6269;SDS011;3168;51.684;6.954;2023-07-02T12:49:44;3.13;;;2.83;;
6269;SDS011;3168;51.684;6.954;2023-07-02T12:52:10;4.50;;;4.10;;
6269;SDS011;3168;51.684;6.954;2023-07-02T12:54:36;5.47;;;3.57;;
6269;SDS011;3168;51.684;6.954;2023-07-02T12:57:02;6.00;;;3.57;;
6269;SDS011;3168;51.684;6.954;2023-07-02T12:59:28;3.17;;;2.80;;
6269;SDS011;3168;51.684;6.954;2023-07-02T13:01:53;4.20;;;3.40;;
6269;SDS011;3168;51.684;6.954;2023-07-02T13:04:19;19.80;;;4.93;;
6269;SDS011;3168;51.684;6.954;2023-07-02T13:06:45;2.80;;;2.60;;
6269;SDS011;3168;51.684;6.954;2023-07-02T13:09:11;8.50;;;4.43;;
6269;SDS011;3168;51.684;6.954;2023-07-02T13:11:37;3.73;;;3.33;;
6269;SDS011;3168;51.684;6.954;2023-07-02T13:14:02;3.40;;;2.83;;
6269;SDS011;3168;51.684;6.954;2023-07-02T13:16:28;5.90;;;4.30;;
6269;SDS011;3168;51.684;6.954;2023-07-02T13:18:55;6.60;;;3.80;;
6269;SDS011;3168;51.684;6.954;2023-07-02T13:21:20;5.50;;;3.67;;
6269;SDS011;3168;51.684;6.954;2023-07-02T13:23:46;4.43;;;4.03;;
6269;SDS011;3168;51.684;6.954;2023-07-02T13:26:12;5.27;;;3.97;;
6269;SDS011;3168;51.684;6.954;2023-07-02T13:28:38;8.33;;;3.70;;
6269;SDS011;3168;51.684;6.954;2023-07-02T13:31:04;9.10;;;2.80;;
6269;SDS011;3168;51.684;6.954;2023-07-02T13:33:30;16.67;;;5.00;;
6269;SDS011;3168;51.684;6.954;2023-07-02T13:35:56;4.73;;;3.43;;
6269;SDS011;3168;51.684;6.954;2023-07-02T13:38:22;6.80;;;3.47;;
6269;SDS011;3168;51.684;6.954;2023-07-02T13:40:48;6.13;;;3.20;;
6269;SDS011;3168;51.684;6.954;2023-07-02T13:43:14;5.13;;;4.43;;
6269;SDS011;3168;51.684;6.954;2023-07-02T13:45:40;4.27;;;3.80;;
6269;SDS011;3168;51.684;6.954;2023-07-02T13:48:06;3.30;;;3.00;;
6269;SDS011;3168;51.684;6.954;2023-07-02T13:50:32;3.10;;;2.27;;
6269;SDS011;3168;51.684;6.954;2023-07-02T13:52:58;6.50;;;3.57;;
6269;SDS011;3168;51.684;6.954;2023-07-02T13:55:23;17.47;;;4.17;;
6269;SDS011;3168;51.684;6.954;2023-07-02T13:57:49;10.03;;;3.30;;
6269;SDS011;3168;51.684;6.954;2023-07-02T14:00:15;3.87;;;3.33;;
6269;SDS011;3168;51.684;6.954;2023-07-02T14:02:41;4.37;;;3.73;;
6269;SDS011;3168;51.684;6.954;2023-07-02T14:05:07;6.87;;;4.50;;
6269;SDS011;3168;51.684;6.954;2023-07-02T14:07:33;4.33;;;3.10;;
6269;SDS011;3168;51.684;6.954;2023-07-02T14:09:59;11.20;;;5.13;;
6269;SDS011;3168;51.684;6.954;2023-07-02T14:12:26;11.47;;;5.10;;
6269;SDS011;3168;51.684;6.954;2023-07-02T14:14:51;6.27;;;3.70;;
6269;SDS011;3168;51.684;6.954;2023-07-02T14:17:17;11.83;;;4.80;;
6269;SDS011;3168;51.684;6.954;2023-07-02T14:19:43;4.53;;;4.03;;
6269;SDS011;3168;51.684;6.954;2023-07-02T14:22:09;4.50;;;4.10;;
6269;SDS011;3168;51.684;6.954;2023-07-02T14:24:35;4.27;;;3.30;;
6269;SDS011;3168;51.684;6.954;2023-07-02T14:27:01;9.13;;;4.60;;
6269;SDS011;3168;51.684;6.954;2023-07-02T14:29:26;12.63;;;3.03;;
6269;SDS011;3168;51.684;6.954;2023-07-02T14:31:52;4.23;;;3.83;;
6269;SDS011;3168;51.684;6.954;2023-07-02T14:34:18;3.60;;;3.17;;
6269;SDS011;3168;51.684;6.954;2023-07-02T14:36:44;3.73;;;3.23;;
6269;SDS011;3168;51.684;6.954;2023-07-02T14:39:10;5.77;;;3.50;;
6269;SDS011;3168;51.684;6.954;2023-07-02T14:41:36;5.33;;;4.27;;
6269;SDS011;3168;51.684;6.954;2023-07-02T14:44:02;3.13;;;2.90;;
6269;SDS011;3168;51.684;6.954;2023-07-02T14:46:27;4.63;;;3.80;;
6269;SDS011;3168;51.684;6.954;2023-07-02T14:48:53;3.50;;;3.20;;
6269;SDS011;3168;51.684;6.954;2023-07-02T14:51:19;4.70;;;3.53;;
6269;SDS011;3168;51.684;6.954;2023-07-02T14:53:45;8.83;;;3.40;;
6269;SDS011;3168;51.684;6.954;2023-07-02T14:56:10;6.97;;;4.40;;
6269;SDS011;3168;51.684;6.954;2023-07-02T14:58:36;4.57;;;2.85;;
6269;SDS011;3168;51.684;6.954;2023-07-02T15:01:02;4.10;;;3.60;;
6269;SDS011;3168;51.684;6.954;2023-07-02T15:03:29;3.03;;;2.67;;
6269;SDS011;3168;51.684;6.954;2023-07-02T15:06:04;6.10;;;3.80;;
6269;SDS011;3168;51.684;6.954;2023-07-02T15:08:21;4.63;;;3.10;;